Time;durP1;ratioP1;P1;durP2;ratioP2;P2;SDS_P1;SDS_P2;PMS_P1;PMS_P2;Temp;Humidity;BMP_temperature;BMP_pressure;BME280_temperature;BME280_humidity;BME280_pressure;Samples;Min_cycle;Max_cycle;Signal;HPM_P1;HPM_P2
2023/08/17 00:01:31;;;;;;;5.28;3.08;;;;;;;22.43;81.17;99305.34;7248106;40;21100;31
2023/08/17 00:12:11;;;;;;;6.77;3.00;;;;;;;22.31;81.86;99293.56;7268141;39;21929;31
2023/08/17 00:17:32;;;;;;;4.90;2.72;;;;;;;22.39;80.83;99293.19;7296236;40;20491;31
2023/08/17 00:23:06;;;;;;;6.55;2.90;;;;;;;22.33;80.80;99294.16;7258231;40;20263;31
2023/08/17 00:28:42;;;;;;;4.83;2.57;;;;;;;22.37;80.59;99289.00;7235027;40;20287;31
2023/08/17 00:34:18;;;;;;;3.60;2.80;;;;;;;22.42;80.35;99292.69;7165711;40;20351;31
2023/08/17 00:39:52;;;;;;;3.90;2.50;;;;;;;22.39;79.91;99289.59;7212781;40;20242;31
2023/08/17 00:45:28;;;;;;;4.46;2.86;;;;;;;22.21;80.51;99274.09;7175907;40;20338;31
2023/08/17 00:51:04;;;;;;;3.62;2.55;;;;;;;22.10;80.98;99274.94;7174864;40;20243;31
2023/08/17 00:56:36;;;;;;;3.23;2.63;;;;;;;22.17;80.55;99266.56;7234513;39;20351;31
2023/08/17 01:02:12;;;;;;;3.87;2.65;;;;;;;22.18;80.06;99263.59;7216761;40;20250;31
2023/08/17 01:07:29;;;;;;;7.06;2.80;;;;;;;22.05;80.28;99263.84;7274813;39;20335;31
2023/08/17 01:13:01;;;;;;;4.75;2.60;;;;;;;22.02;80.29;99258.84;7247240;40;20272;31
2023/08/17 01:23:38;;;;;;;4.28;2.45;;;;;;;21.98;80.00;99257.66;7206576;40;21790;31
2023/08/17 01:34:18;;;;;;;5.93;2.83;;;;;;;21.87;79.53;99244.72;7224426;40;21954;31
2023/08/17 01:44:55;;;;;;;3.15;2.40;;;;;;;21.81;79.65;99251.12;7182390;40;21026;31
2023/08/17 01:50:27;;;;;;;2.80;2.60;;;;;;;21.81;79.62;99256.63;7200887;40;20249;31
2023/08/17 02:07:07;;;;;;;4.87;2.60;;;;;;;21.73;79.61;99246.84;7246290;40;20266;31
2023/08/17 02:12:39;;;;;;;3.80;2.60;;;;;;;21.76;79.71;99251.03;7296931;39;20294;31
2023/08/17 02:18:12;;;;;;;7.20;2.75;;;;;;;21.56;79.70;99248.63;7292359;40;20275;31
2023/08/17 02:23:45;;;;;;;3.64;2.58;;;;;;;21.43;80.13;99238.69;7274061;39;20268;31
2023/08/17 02:29:02;;;;;;;2.77;2.50;;;;;;;21.44;80.02;99232.16;7193282;40;20316;31
2023/08/17 02:34:37;;;;;;;3.12;2.30;;;;;;;21.44;78.78;99237.63;7191409;40;20254;31
2023/08/17 02:40:10;;;;;;;4.95;2.50;;;;;;;21.38;79.55;99232.25;7195550;40;20254;31
2023/08/17 02:45:42;;;;;;;2.92;2.08;;;;;;;21.36;78.55;99232.50;7186530;40;20357;31
2023/08/17 02:50:59;;;;;;;3.50;2.00;;;;;;;21.32;78.95;99236.78;7196532;40;20332;31
2023/08/17 02:56:35;;;;;;;3.03;2.20;;;;;;;21.24;78.28;99234.34;7233461;40;20253;31
2023/08/17 03:01:55;;;;;;;2.67;2.20;;;;;;;21.24;78.98;99237.09;7265906;40;20250;31
2023/08/17 03:07:30;;;;;;;3.73;2.00;;;;;;;21.21;78.58;99214.78;7260006;40;20324;31
2023/08/17 03:13:06;;;;;;;3.47;2.20;;;;;;;21.07;78.94;99219.59;7282234;40;20249;31
2023/08/17 03:18:23;;;;;;;3.30;2.00;;;;;;;21.01;79.30;99215.09;7240640;40;22800;31
2023/08/17 03:23:43;;;;;;;3.03;2.05;;;;;;;20.94;79.80;99217.06;7240838;40;20343;31
2023/08/17 03:34:23;;;;;;;4.57;2.30;;;;;;;20.39;82.39;99202.66;7284344;39;20280;31
2023/08/17 03:44:47;;;;;;;2.57;2.37;;;;;;;20.31;82.10;99201.06;7282474;40;20276;31
2023/08/17 03:50:24;;;;;;;5.40;2.50;;;;;;;20.27;82.74;99196.25;7297655;39;22050;31
2023/08/17 03:55:58;;;;;;;3.20;2.83;;;;;;;20.36;83.32;99198.44;7247575;40;20354;31
2023/08/17 04:01:15;;;;;;;3.47;2.25;;;;;;;20.63;81.96;99191.56;7213838;40;20336;31
2023/08/17 04:06:49;;;;;;;2.55;2.20;;;;;;;20.76;80.14;99211.62;7222013;40;20245;31
2023/08/17 04:12:08;;;;;;;3.85;2.10;;;;;;;20.86;79.79;99209.19;7230661;40;20254;31
2023/08/17 04:17:24;;;;;;;2.55;2.15;;;;;;;20.79;80.62;99213.94;7254826;40;20263;31
2023/08/17 04:22:55;;;;;;;3.90;2.60;;;;;;;20.42;81.46;99213.97;7283489;39;22350;31
2023/08/17 04:28:30;;;;;;;3.47;2.40;;;;;;;20.29;81.67;99216.00;7215346;40;20376;31
2023/08/17 04:33:47;;;;;;;4.00;2.20;;;;;;;20.31;82.35;99222.13;7194721;40;20258;31
2023/08/17 04:39:18;;;;;;;3.67;2.45;;;;;;;20.29;82.24;99229.69;6994497;40;21432;31
2023/08/17 04:44:50;;;;;;;3.40;2.23;;;;;;;20.31;82.48;99225.72;7197814;40;20254;31
2023/08/17 04:50:20;;;;;;;3.47;2.10;;;;;;;20.38;82.08;99228.34;7232156;39;20463;31
2023/08/17 04:55:53;;;;;;;4.22;2.22;;;;;;;20.34;83.20;99238.94;7234481;40;20296;31
2023/08/17 05:01:29;;;;;;;3.67;2.20;;;;;;;20.37;82.83;99238.47;7216997;40;21360;31
2023/08/17 05:06:46;;;;;;;3.13;2.50;;;;;;;20.49;82.81;99242.09;7197182;40;20278;31
2023/08/17 05:12:17;;;;;;;3.53;2.40;;;;;;;20.42;82.99;99249.56;7137897;40;20339;31
2023/08/17 05:17:49;;;;;;;2.78;2.58;;;;;;;20.45;82.70;99259.22;7176833;40;20326;31
2023/08/17 05:23:24;;;;;;;4.55;2.60;;;;;;;20.41;83.87;99267.06;7226835;40;20281;31
2023/08/17 05:29:00;;;;;;;7.67;3.63;;;;;;;20.33;84.70;99264.63;7219899;40;20261;31
2023/08/17 05:34:32;;;;;;;3.13;2.43;;;;;;;20.33;84.44;99264.63;7204042;40;20238;31
2023/08/17 05:40:05;;;;;;;4.47;3.00;;;;;;;20.34;84.16;99270.94;7241873;40;20245;31
2023/08/17 05:45:38;;;;;;;5.40;2.87;;;;;;;20.33;84.13;99269.25;7217920;40;20261;31
2023/08/17 05:51:10;;;;;;;3.25;2.75;;;;;;;20.39;84.93;99276.59;7194865;40;20425;31
2023/08/17 05:56:46;;;;;;;3.43;2.80;;;;;;;20.36;86.62;99277.84;7199809;40;20249;31
2023/08/17 06:02:15;;;;;;;4.13;2.80;;;;;;;20.49;85.12;99277.69;7177093;40;20352;31
2023/08/17 06:07:33;;;;;;;3.70;2.80;;;;;;;20.61;85.37;99283.28;7212000;40;20399;31
2023/08/17 06:12:50;;;;;;;3.65;2.70;;;;;;;20.76;85.27;99282.84;7230029;40;20277;31
2023/08/17 06:18:22;;;;;;;4.03;2.90;;;;;;;20.86;86.01;99286.75;7215738;40;20268;31
2023/08/17 06:23:54;;;;;;;4.75;2.90;;;;;;;20.94;85.86;99277.34;7188383;40;20340;31
2023/08/17 06:29:26;;;;;;;3.28;2.70;;;;;;;21.02;85.89;99290.72;7175862;40;20277;31
2023/08/17 06:34:59;;;;;;;4.07;3.00;;;;;;;21.12;85.68;99294.63;7146322;40;20262;31
2023/08/17 06:40:17;;;;;;;5.22;3.05;;;;;;;21.29;85.86;99280.25;7141554;40;20330;31
2023/08/17 06:45:52;;;;;;;3.55;2.80;;;;;;;21.38;84.77;99289.84;7179852;40;20276;31
2023/08/17 06:56:33;;;;;;;4.78;3.85;;;;;;;21.51;85.25;99278.66;7232725;40;20280;31
2023/08/17 07:01:50;;;;;;;4.30;3.53;;;;;;;21.67;83.94;99282.63;7259972;40;20241;31
2023/08/17 07:07:21;;;;;;;5.35;4.43;;;;;;;21.72;84.03;99282.78;7245661;40;20244;31
2023/08/17 07:12:56;;;;;;;4.87;3.72;;;;;;;21.85;83.88;99285.28;7232604;40;20268;31
2023/08/17 07:18:16;;;;;;;6.30;5.12;;;;;;;21.94;83.25;99287.44;7241689;40;20327;31
2023/08/17 07:23:36;;;;;;;5.90;4.47;;;;;;;22.07;82.67;99283.66;7205777;40;22061;31
2023/08/17 07:29:09;;;;;;;7.68;4.68;;;;;;;22.21;83.12;99287.81;7233343;40;20249;31
2023/08/17 07:34:26;;;;;;;8.10;5.35;;;;;;;22.33;82.30;99271.34;7282020;39;20233;31
2023/08/17 07:39:46;;;;;;;8.36;5.44;;;;;;;22.54;81.61;99276.22;7321141;39;20267;31
2023/08/17 07:45:23;;;;;;;7.70;6.74;;;;;;;22.65;81.42;99282.72;7307976;39;20310;31
2023/08/17 07:50:58;;;;;;;11.35;7.82;;;;;;;22.67;81.66;99291.59;7311580;39;20255;31
2023/08/17 07:56:18;;;;;;;8.38;7.22;;;;;;;22.92;81.11;99292.97;7276900;40;20242;31
2023/08/17 08:01:50;;;;;;;11.20;8.15;;;;;;;22.97;80.18;99303.25;7260074;40;20272;31
2023/08/17 08:07:25;;;;;;;10.77;8.40;;;;;;;22.97;80.39;99305.16;7216812;40;20239;31
2023/08/17 08:13:00;;;;;;;11.30;7.73;;;;;;;23.08;79.40;99304.28;7212620;40;20260;31
2023/08/17 08:18:33;;;;;;;11.85;9.10;;;;;;;23.15;78.78;99314.06;7202588;40;20279;31
2023/08/17 08:24:05;;;;;;;10.30;8.18;;;;;;;23.39;77.64;99309.28;7153385;40;20346;31
2023/08/17 08:29:40;;;;;;;9.85;7.87;;;;;;;23.73;78.27;99307.47;7176557;40;20246;31
2023/08/17 08:35:16;;;;;;;8.55;7.43;;;;;;;23.80;77.18;99302.63;7202009;40;20257;31
2023/08/17 08:40:51;;;;;;;9.93;8.77;;;;;;;23.95;76.39;99296.53;7242801;40;20245;31
2023/08/17 08:46:26;;;;;;;10.18;8.75;;;;;;;24.11;75.25;99296.53;7204299;40;20251;31
2023/08/17 08:52:02;;;;;;;10.40;8.10;;;;;;;24.30;74.72;99304.53;7215086;40;20264;31
2023/08/17 08:57:37;;;;;;;10.88;7.60;;;;;;;24.39;73.97;99308.53;7264657;40;20330;31
2023/08/17 09:03:12;;;;;;;8.55;6.65;;;;;;;24.60;73.78;99299.47;7203799;40;20267;31
2023/08/17 09:08:43;;;;;;;6.27;5.67;;;;;;;24.90;72.29;99294.38;7153364;40;20770;31
2023/08/17 09:19:07;;;;;;;9.30;7.03;;;;;;;24.30;74.51;99290.78;7219024;40;21240;31
2023/08/17 09:29:45;;;;;;;7.70;5.60;;;;;;;24.72;72.58;99285.56;7327650;39;21124;31
2023/08/17 09:40:20;;;;;;;5.32;4.40;;;;;;;25.30;71.26;99276.63;7334129;39;20318;31
2023/08/17 09:50:57;;;;;;;7.90;4.67;;;;;;;25.66;70.51;99252.97;7297854;39;20332;31
2023/08/17 10:01:36;;;;;;;6.72;4.40;;;;;;;26.16;69.25;99260.78;7248064;40;20720;31
2023/08/17 10:07:09;;;;;;;6.07;4.18;;;;;;;26.35;69.82;99262.91;7233924;40;20284;31
2023/08/17 10:12:41;;;;;;;5.72;4.00;;;;;;;26.61;68.77;99260.25;7185078;40;20274;31
2023/08/17 10:18:14;;;;;;;5.47;4.10;;;;;;;26.69;67.75;99268.87;7153950;40;20274;31
2023/08/17 10:28:51;;;;;;;5.10;4.60;;;;;;;27.07;67.61;99275.16;7151201;40;21037;31
2023/08/17 10:34:23;;;;;;;7.22;3.92;;;;;;;27.15;67.27;99274.63;7237000;40;20323;31
2023/08/17 10:40:00;;;;;;;6.20;4.10;;;;;;;27.35;66.37;99263.56;7234282;40;20257;31
2023/08/17 10:45:47;;;;;;;6.43;3.70;;;;;;;27.44;66.12;99266.63;7233770;40;20265;31
2023/08/17 10:51:16;;;;;;;5.00;4.50;;;;;;;27.52;64.72;99271.66;7151622;40;20362;31
2023/08/17 10:56:48;;;;;;;5.85;3.53;;;;;;;27.68;66.06;99271.41;7148170;40;20266;31
2023/08/17 11:02:21;;;;;;;4.47;3.70;;;;;;;27.77;65.50;99285.56;7135095;40;20265;31
2023/08/17 11:07:56;;;;;;;4.20;3.72;;;;;;;27.70;64.25;99280.28;7152596;40;20321;31
2023/08/17 11:13:28;;;;;;;6.27;3.50;;;;;;;27.51;66.53;99293.00;7167292;40;20243;31
2023/08/17 11:18:59;;;;;;;4.60;3.60;;;;;;;27.34;65.18;99292.37;6966579;40;21571;31
2023/08/17 11:29:21;;;;;;;3.50;3.20;;;;;;;27.34;66.04;99306.22;7220855;40;21223;31
2023/08/17 11:35:08;;;;;;;4.38;3.68;;;;;;;27.61;66.03;99317.09;7234828;40;20423;31
2023/08/17 11:40:40;;;;;;;5.77;4.03;;;;;;;27.41;65.06;99325.34;7127445;40;20336;31
2023/08/17 11:46:12;;;;;;;5.04;3.86;;;;;;;27.02;66.63;99319.41;7194123;40;20356;31
2023/08/17 11:51:45;;;;;;;5.43;4.07;;;;;;;26.93;67.47;99296.97;7146181;40;20322;31
2023/08/17 11:57:17;;;;;;;4.70;3.58;;;;;;;26.93;68.54;99263.75;7154874;40;20261;31
2023/08/17 12:02:49;;;;;;;5.75;3.80;;;;;;;26.87;68.27;99265.66;7145459;40;20282;31
2023/08/17 12:08:22;;;;;;;5.33;3.80;;;;;;;26.81;68.81;99269.47;7169503;40;20257;31
2023/08/17 12:13:40;;;;;;;5.68;3.78;;;;;;;26.69;69.44;99260.56;7205029;40;20377;31
2023/08/17 12:19:14;;;;;;;5.10;3.70;;;;;;;26.60;69.21;99242.84;7245961;40;20245;31
2023/08/17 12:24:47;;;;;;;4.85;3.75;;;;;;;26.57;70.20;99228.72;7176261;40;20247;31
2023/08/17 12:30:20;;;;;;;4.20;3.80;;;;;;;26.51;70.13;99243.62;7209969;40;20427;31
2023/08/17 12:35:38;;;;;;;5.52;3.82;;;;;;;26.44;69.86;99246.63;7242983;40;20277;31
2023/08/17 12:41:10;;;;;;;5.78;3.60;;;;;;;26.80;69.14;99226.34;7220443;40;20288;31
2023/08/17 12:46:42;;;;;;;5.75;3.95;;;;;;;27.50;68.07;99221.28;7205052;40;21183;31
2023/08/17 12:52:00;;;;;;;6.47;3.37;;;;;;;28.02;66.79;99221.78;7197350;40;20277;31
2023/08/17 12:57:35;;;;;;;5.30;3.60;;;;;;;28.27;65.35;99215.37;7195552;40;20261;31
2023/08/17 13:02:56;;;;;;;5.35;3.70;;;;;;;28.70;64.76;99219.41;7203408;40;20273;31
2023/08/17 13:08:13;;;;;;;5.07;3.62;;;;;;;28.85;63.50;99212.97;7240329;40;21148;31
2023/08/17 13:13:48;;;;;;;5.82;3.42;;;;;;;29.02;63.20;99192.06;7215604;40;20245;31
2023/08/17 13:19:06;;;;;;;4.32;3.10;;;;;;;29.10;62.61;99196.16;7212245;40;20296;31
2023/08/17 13:29:47;;;;;;;4.35;3.25;;;;;;;29.16;60.91;99186.69;7242499;40;21130;31
2023/08/17 13:35:19;;;;;;;4.50;3.10;;;;;;;29.23;61.84;99178.84;7231270;40;20359;31
2023/08/17 13:40:52;;;;;;;4.12;3.30;;;;;;;28.96;63.06;99173.75;7259921;40;20283;31
2023/08/17 13:46:25;;;;;;;3.37;3.05;;;;;;;28.92;63.48;99157.97;7234768;40;20242;31
2023/08/17 13:51:42;;;;;;;5.40;3.50;;;;;;;28.92;64.04;99163.53;7224001;40;20261;31
2023/08/17 13:57:17;;;;;;;5.70;3.30;;;;;;;28.72;63.92;99152.53;7246551;40;20459;31
2023/08/17 14:02:50;;;;;;;5.40;3.60;;;;;;;28.56;63.96;99155.37;7175436;40;20269;31
2023/08/17 14:08:07;;;;;;;6.28;3.80;;;;;;;28.54;65.08;99143.72;7228658;40;20249;31
2023/08/17 14:13:42;;;;;;;3.23;2.93;;;;;;;28.52;65.04;99153.47;7231701;40;20241;31
2023/08/17 14:19:15;;;;;;;3.97;3.47;;;;;;;28.81;64.08;99148.06;7223033;40;20261;31
2023/08/17 14:24:35;;;;;;;4.78;3.37;;;;;;;28.76;64.92;99150.84;7150681;40;20273;31
2023/08/17 14:29:55;;;;;;;3.65;3.35;;;;;;;28.79;63.15;99148.34;7202184;40;20246;31
2023/08/17 14:35:28;;;;;;;4.28;3.62;;;;;;;28.72;64.19;99152.53;7175765;40;20353;31
2023/08/17 14:41:04;;;;;;;5.60;3.60;;;;;;;28.55;65.07;99145.41;7182853;40;20258;31
2023/08/17 14:46:38;;;;;;;5.16;3.66;;;;;;;28.51;65.14;99127.66;7192761;40;20264;31
2023/08/17 14:52:09;;;;;;;8.07;4.20;;;;;;;28.73;64.28;99124.53;7192470;40;20253;31
2023/08/17 14:57:26;;;;;;;4.90;3.57;;;;;;;28.92;64.19;99096.91;7207457;40;20261;31
2023/08/17 15:02:46;;;;;;;3.66;3.28;;;;;;;28.85;63.60;99108.34;7236634;40;20271;31
2023/08/17 15:08:20;;;;;;;5.45;3.60;;;;;;;28.86;63.73;99106.41;7245944;40;20267;31
2023/08/17 15:13:40;;;;;;;3.80;3.25;;;;;;;28.92;63.15;99111.63;7250172;40;20308;31
2023/08/17 15:19:15;;;;;;;5.18;3.53;;;;;;;28.95;63.56;99099.13;7239192;40;20256;31
2023/08/17 15:24:48;;;;;;;4.07;3.05;;;;;;;28.93;62.16;99088.31;7181852;40;20293;31
2023/08/17 15:35:27;;;;;;;5.60;3.35;;;;;;;28.93;62.85;99077.19;7179382;40;20545;31
2023/08/17 15:46:03;;;;;;;5.07;3.17;;;;;;;28.95;62.49;99074.16;7246076;40;20286;31
2023/08/17 15:56:24;;;;;;;3.70;3.30;;;;;;;28.83;61.21;99077.25;7262601;40;20283;31
2023/08/17 16:02:00;;;;;;;3.30;2.98;;;;;;;28.93;60.50;99076.38;7294677;39;20241;31
2023/08/17 16:07:17;;;;;;;3.55;3.12;;;;;;;29.06;62.17;99081.25;7285557;39;20249;31
2023/08/17 16:12:37;;;;;;;5.77;3.57;;;;;;;29.14;61.05;99066.75;7294722;40;20268;31
2023/08/17 16:23:12;;;;;;;6.05;3.33;;;;;;;29.16;61.40;99060.91;7301449;39;21203;31
2023/08/17 16:33:48;;;;;;;4.20;3.45;;;;;;;28.92;62.68;99069.97;7278904;40;20274;31
2023/08/17 16:44:29;;;;;;;3.53;3.22;;;;;;;28.57;63.38;99070.19;7319796;39;20352;31
2023/08/17 16:49:49;;;;;;;3.90;3.12;;;;;;;28.58;64.63;99069.09;7294523;40;20261;31
2023/08/17 16:55:22;;;;;;;4.65;3.45;;;;;;;28.50;64.32;99084.41;7282080;40;20241;31
2023/08/17 17:00:55;;;;;;;5.16;3.60;;;;;;;28.45;64.53;99087.19;7249061;40;20299;31
2023/08/17 17:06:27;;;;;;;6.30;3.70;;;;;;;28.37;65.09;99096.13;7201108;40;21124;31
2023/08/17 17:11:59;;;;;;;6.80;3.80;;;;;;;28.29;64.24;99095.88;7198225;40;20435;31
2023/08/17 17:17:32;;;;;;;3.55;3.25;;;;;;;28.16;65.46;99098.16;7152185;40;20333;31
2023/08/17 17:22:52;;;;;;;6.90;3.40;;;;;;;28.08;64.80;99092.34;7158786;40;20277;31
2023/08/17 17:28:24;;;;;;;4.00;3.60;;;;;;;27.92;67.02;99090.72;7172738;40;20373;31
2023/08/17 17:39:00;;;;;;;4.20;3.62;;;;;;;27.67;68.46;99094.41;7248536;40;21447;31
2023/08/17 17:44:32;;;;;;;4.88;3.92;;;;;;;27.73;68.17;99113.47;7231316;40;20270;31
2023/08/17 17:55:11;;;;;;;4.37;3.97;;;;;;;27.46;69.56;99120.44;7192329;40;20305;31
2023/08/17 18:05:48;;;;;;;5.40;3.98;;;;;;;27.25;69.00;99127.94;7240448;40;20287;31
2023/08/17 18:11:24;;;;;;;5.18;4.15;;;;;;;27.08;70.44;99132.87;7238915;40;20294;31
2023/08/17 18:16:56;;;;;;;7.00;4.10;;;;;;;27.04;70.33;99126.25;7219723;40;20260;31
2023/08/17 18:22:17;;;;;;;4.90;4.15;;;;;;;26.97;70.28;99126.53;7194519;40;20250;31
2023/08/17 18:27:52;;;;;;;4.53;4.10;;;;;;;26.73;71.05;99123.41;6985113;40;20435;31
2023/08/17 18:33:24;;;;;;;4.10;3.70;;;;;;;26.73;70.44;99125.34;7196605;40;20390;31
2023/08/17 18:38:45;;;;;;;4.50;4.10;;;;;;;26.70;71.05;99126.72;7216207;40;20257;31
2023/08/17 18:44:19;;;;;;;7.37;3.90;;;;;;;26.59;71.48;99119.50;7182286;40;20420;31
2023/08/17 18:49:51;;;;;;;5.24;4.44;;;;;;;26.48;71.92;99116.97;7245765;40;20249;31
2023/08/17 18:55:23;;;;;;;5.50;4.50;;;;;;;26.45;71.55;99118.38;7191667;40;20250;31
2023/08/17 19:00:56;;;;;;;6.30;4.30;;;;;;;26.39;72.30;99123.03;7221239;40;20420;31
2023/08/17 19:11:18;;;;;;;4.70;4.10;;;;;;;26.12;73.03;99130.63;7249672;40;21210;31
2023/08/17 19:21:58;;;;;;;4.10;3.50;;;;;;;25.85;72.24;99127.16;7250399;40;20295;31
2023/08/17 19:27:30;;;;;;;4.28;3.82;;;;;;;25.75;72.39;99127.97;7253243;40;20277;31
2023/08/17 19:38:07;;;;;;;4.03;3.62;;;;;;;25.56;72.66;99146.87;7334828;39;21368;31
2023/08/17 19:48:29;;;;;;;4.82;4.30;;;;;;;25.26;74.44;99143.00;7256457;40;21374;31
2023/08/17 19:54:04;;;;;;;5.35;4.00;;;;;;;25.12;74.72;99139.84;7275745;40;20272;31
2023/08/17 19:59:25;;;;;;;4.30;3.90;;;;;;;25.18;74.66;99137.97;7267658;40;20237;31
2023/08/17 20:05:01;;;;;;;4.07;3.78;;;;;;;25.12;74.16;99137.94;7254710;40;20319;31
2023/08/17 20:10:36;;;;;;;5.35;4.10;;;;;;;25.04;73.90;99143.94;7250029;40;20245;31
2023/08/17 20:15:57;;;;;;;5.63;4.37;;;;;;;25.10;73.81;99145.63;7205177;40;20242;31
2023/08/17 20:21:33;;;;;;;5.25;4.32;;;;;;;25.07;74.31;99153.59;7200604;40;20320;31
2023/08/17 20:27:09;;;;;;;4.40;3.90;;;;;;;25.07;74.24;99145.31;7192965;40;20247;31
2023/08/17 20:32:26;;;;;;;4.28;3.87;;;;;;;25.02;73.68;99151.62;7186177;40;20253;31
2023/08/17 20:37:46;;;;;;;9.05;4.60;;;;;;;25.01;73.41;99149.94;7216143;40;20256;31
2023/08/17 20:43:22;;;;;;;4.45;3.95;;;;;;;25.01;73.57;99149.94;7231292;40;20438;31
2023/08/17 20:48:57;;;;;;;4.97;4.07;;;;;;;24.94;74.23;99149.34;7247949;40;20427;31
2023/08/17 20:54:32;;;;;;;5.93;4.27;;;;;;;24.93;74.60;99150.44;7196748;40;20254;31
2023/08/17 21:00:08;;;;;;;6.15;3.95;;;;;;;24.91;74.68;99151.78;7178437;40;20310;31
2023/08/17 21:05:43;;;;;;;5.50;4.00;;;;;;;24.85;74.56;99139.00;7145409;40;20266;31
2023/08/17 21:11:00;;;;;;;5.25;4.05;;;;;;;24.88;74.15;99142.09;7165515;40;20529;31
2023/08/17 21:16:36;;;;;;;5.12;4.20;;;;;;;24.80;75.68;99145.31;7143409;40;20243;31
2023/08/17 21:22:08;;;;;;;5.65;4.00;;;;;;;24.75;75.67;99134.22;7129135;40;20266;31
2023/08/17 21:32:45;;;;;;;6.03;3.95;;;;;;;24.73;76.19;99125.37;7254079;40;21194;31
2023/08/17 21:38:20;;;;;;;5.53;4.33;;;;;;;24.73;75.71;99117.13;7184957;40;20280;31
2023/08/17 21:43:40;;;;;;;5.03;4.18;;;;;;;24.77;76.94;99123.78;7167883;40;20265;31
2023/08/17 21:49:16;;;;;;;4.40;4.00;;;;;;;24.81;76.59;99124.91;7178387;40;20246;31
2023/08/17 21:54:36;;;;;;;4.80;4.30;;;;;;;24.86;76.34;99124.16;7184080;40;20328;31
2023/08/17 21:59:56;;;;;;;5.25;4.75;;;;;;;24.85;76.88;99120.53;7210828;40;20407;31
2023/08/17 22:05:30;;;;;;;5.20;4.70;;;;;;;24.69;78.61;99110.47;7247260;40;20249;31
2023/08/17 22:11:02;;;;;;;5.62;5.00;;;;;;;24.60;78.69;99123.87;7267255;40;20261;31
2023/08/17 22:21:39;;;;;;;6.15;4.87;;;;;;;24.59;78.96;99115.84;7233615;40;21086;31
2023/08/17 22:26:59;;;;;;;7.13;4.93;;;;;;;24.62;79.40;99116.16;7206533;40;20257;31
2023/08/17 22:32:34;;;;;;;6.82;5.43;;;;;;;24.56;80.07;99110.88;7234204;40;20299;31
2023/08/17 22:38:10;;;;;;;5.70;5.20;;;;;;;24.46;80.76;99116.25;7253939;40;20291;31
2023/08/17 22:43:30;;;;;;;5.80;5.20;;;;;;;24.45;81.55;99111.84;7203317;40;20261;31
2023/08/17 22:49:02;;;;;;;7.72;5.47;;;;;;;24.35;81.65;99104.31;7224006;40;20467;31
2023/08/17 22:54:38;;;;;;;8.65;5.80;;;;;;;24.35;82.90;99104.31;7195240;40;20255;31
2023/08/17 23:00:10;;;;;;;6.90;5.97;;;;;;;24.30;82.47;99109.75;7195207;40;20348;31
2023/08/17 23:05:30;;;;;;;8.30;5.85;;;;;;;24.23;83.42;99106.34;7203192;40;20261;31
2023/08/17 23:11:07;;;;;;;7.05;6.10;;;;;;;24.15;84.05;99104.03;7228849;40;20495;31
2023/08/17 23:16:39;;;;;;;6.30;5.65;;;;;;;24.14;84.19;99105.09;7191069;40;20268;31
2023/08/17 23:21:59;;;;;;;7.30;5.90;;;;;;;24.16;83.54;99098.31;7198055;40;20257;31
2023/08/17 23:27:35;;;;;;;6.50;5.90;;;;;;;24.17;84.30;99094.47;7158766;40;20242;31
2023/08/17 23:32:54;;;;;;;8.23;6.03;;;;;;;24.19;83.02;99092.25;7144499;40;20279;31
2023/08/17 23:43:26;;;;;;;7.60;6.60;;;;;;;24.26;84.31;99105.03;7205478;40;21215;31
2023/08/17 23:54:06;;;;;;;7.53;5.90;;;;;;;24.06;83.11;99103.63;7219268;40;20285;31
2023/08/17 23:59:39;;;;;;;10.93;6.97;;;;;;;24.04;84.85;99103.09;7232007;40;20245;31
